createdAt,value
2022-11-16T00:03:40.619Z,10.07
2022-11-16T00:18:32.835Z,10.61
2022-11-16T00:33:24.213Z,12.54
2022-11-16T00:48:15.887Z,13.54
2022-11-16T01:03:07.132Z,14.09
2022-11-16T01:17:58.044Z,16.13
2022-11-16T01:32:49.680Z,15.27
2022-11-16T01:47:41.122Z,15.77
2022-11-16T02:02:34.686Z,16.62
2022-11-16T02:17:38.356Z,16.70
2022-11-16T02:32:35.358Z,18.11
2022-11-16T02:47:28.221Z,16.62
2022-11-16T03:02:34.485Z,16.54
2022-11-16T03:17:41.867Z,15.44
2022-11-16T03:32:49.410Z,14.21
2022-11-16T03:47:45.009Z,12.48
2022-11-16T04:02:37.301Z,11.59
2022-11-16T04:17:47.310Z,10.63
2022-11-16T04:33:02.075Z,8.34
2022-11-16T04:47:59.453Z,7.90
2022-11-16T05:02:51.418Z,8.40
2022-11-16T05:17:43.192Z,10.70
2022-11-16T05:32:34.858Z,13.19
2022-11-16T05:47:26.147Z,15.01
2022-11-16T06:02:18.095Z,13.31
2022-11-16T06:17:10.185Z,14.19
2022-11-16T06:32:01.939Z,14.24
2022-11-16T06:46:52.858Z,12.86
2022-11-16T07:01:45.042Z,12.21
2022-11-16T07:16:36.879Z,12.92
2022-11-16T07:31:28.728Z,9.30
2022-11-16T07:46:45.440Z,7.86
2022-11-16T08:01:12.305Z,6.63
2022-11-16T08:16:04.186Z,5.06
2022-11-16T08:30:56.810Z,4.43
2022-11-16T08:45:49.222Z,3.23
2022-11-16T09:00:47.719Z,2.91
2022-11-16T09:15:37.650Z,1.96
2022-11-16T09:30:30.113Z,1.71
2022-11-16T09:45:42.451Z,1.72
2022-11-16T10:00:40.311Z,1.47
2022-11-16T10:15:50.886Z,1.51
2022-11-16T10:30:59.561Z,1.79
2022-11-16T10:46:05.087Z,1.17
2022-11-16T11:01:00.965Z,1.12
2022-11-16T11:16:17.332Z,1.08
2022-11-16T11:31:27.649Z,1.00
2022-11-16T11:46:35.879Z,1.23
2022-11-16T12:01:31.789Z,1.06
2022-11-16T12:16:46.248Z,0.90
2022-11-16T12:32:09.280Z,0.90
2022-11-16T12:47:15.386Z,0.71
2022-11-16T13:02:11.836Z,0.87
2022-11-16T13:17:05.401Z,0.83
2022-11-16T13:32:05.236Z,1.39
2022-11-16T13:47:01.076Z,1.03
2022-11-16T14:01:56.858Z,0.96
2022-11-16T14:16:51.926Z,1.01
2022-11-16T14:31:55.038Z,0.92
2022-11-16T14:46:50.704Z,1.19
2022-11-16T15:01:41.038Z,1.63
2022-11-16T15:16:31.688Z,1.39
2022-11-16T15:31:22.723Z,1.47
2022-11-16T15:46:12.814Z,1.81
2022-11-16T16:01:02.092Z,2.11
2022-11-16T16:15:53.689Z,1.50
2022-11-16T16:30:54.776Z,1.44
2022-11-16T16:45:50.693Z,1.60
2022-11-16T17:00:36.448Z,1.82
2022-11-16T17:15:26.627Z,2.17
2022-11-16T17:30:17.468Z,1.97
2022-11-16T18:31:34.974Z,2.60
2022-11-16T19:01:30.994Z,1.41
2022-11-16T19:16:23.123Z,3.27
2022-11-16T19:31:15.677Z,2.21
2022-11-16T19:46:08.431Z,1.71
2022-11-16T20:01:04.709Z,2.63
2022-11-16T20:15:57.875Z,1.77
2022-11-16T20:30:49.435Z,1.68
2022-11-16T20:45:40.473Z,1.78
2022-11-16T21:00:31.845Z,1.23
2022-11-16T21:15:22.520Z,1.42
2022-11-16T21:30:13.800Z,1.28
2022-11-16T21:45:05.826Z,1.33
2022-11-16T21:59:57.560Z,1.46
2022-11-16T22:14:49.246Z,1.41
2022-11-16T22:29:40.238Z,1.28
2022-11-16T22:44:32.887Z,1.22
2022-11-16T22:59:26.158Z,1.46
2022-11-16T23:14:35.540Z,2.23
2022-11-16T23:29:29.828Z,3.23
2022-11-16T23:44:20.965Z,1.72
2022-11-16T23:59:12.318Z,1.94
